This is the latest recevied weather packets stored in our database for station/object XE2RCS-21. If no packets are shown the sender has not sent any weather packets the latest 10 day(s).
| Time | Temp. | Humidity | Pressure | Rain* | Wind** | Luminosity | Snow |
|---|---|---|---|---|---|---|---|
| 1788147553 | 76° F | 100% | 768.1 mmHg | - | - | - | - |
| 1788145753 | 76° F | 100% | 768.1 mmHg | - | - | - | - |
| 1788143953 | 77° F | 100% | 768 mmHg | - | - | - | - |
| 1788142153 | 77° F | 100% | 767.8 mmHg | - | - | - | - |
| 1788140352 | 77° F | 100% | 767.5 mmHg | - | - | - | - |
| 1788138552 | 77° F | 100% | 767.6 mmHg | - | - | - | - |
| 1788136752 | 78° F | 100% | 767.5 mmHg | - | - | - | - |
| 1788134952 | 83° F | 100% | 767.5 mmHg | - | - | - | - |
| 1788133145 | 82° F | 100% | 767.5 mmHg | - | - | - | - |
| 1788131345 | 84° F | 97% | 767.2 mmHg | - | - | - | - |
| 1788129546 | 80° F | 100% | 767.7 mmHg | - | - | - | - |
| 1788127746 | 80° F | 100% | 768 mmHg | - | - | - | - |
| 1788125946 | 78° F | 100% | 767.8 mmHg | - | - | - | - |
| 1788124146 | 80° F | 100% | 767.4 mmHg | - | - | - | - |
| 1788122345 | 94° F | 58% | 767.2 mmHg | - | - | - | - |
| 1788120545 | 99° F | 46% | 767.2 mmHg | - | - | - | - |
| 1788118745 | 91° F | 42% | 767.7 mmHg | - | - | - | - |
| 1788116945 | 88° F | 45% | 768.1 mmHg | - | - | - | - |
| 1788115145 | 98° F | 37% | 768 mmHg | - | - | - | - |
| 1788113345 | 96° F | 36% | 768.4 mmHg | - | - | - | - |
| 1788111544 | 93° F | 48% | 768.8 mmHg | - | - | - | - |
| 1788109744 | 93° F | 52% | 769.1 mmHg | - | - | - | - |
| 1788107946 | 91° F | 58% | 769.4 mmHg | - | - | - | - |
| 1788106146 | 92° F | 55% | 769.5 mmHg | - | - | - | - |
| 1788104345 | 88° F | 69% | 769.6 mmHg | - | - | - | - |
* Rain since midnight (hover to see other rain measurements)
** Current wind speed in m/s (hover to see current wind gust speed)